Westline, Pennsylvania
Current Conditions -  °F | °C
As of 11:16 PM on Wednesday 28 Jan 2015 (Local Time) from KBFD Reporting Station
Haze Haze  
Wind Chill:   Ceiling: Unl
Heat Index:   Visibility: 3mi
Dew Point: -4°   Wind: 0mph
Humidity: 73%   Direction: NA
Pressure: 30.2"   Gusts: NA
Location:  41.78°N, 78.77°W
Report Text: KBFD 290416Z AUTO 00000KT 3SM HZ CLR M16/M20 A3020 RMK AO2 T11611200
Loading
Personal Weather Stations






























Interactive Weather Map New forecast layout! Learn more

10-Day Weather Forecast

Advertisements
Track Severe Weather on mobile